createdAt,value
2023-04-08T00:01:05.488Z,5.53
2023-04-08T00:11:08.149Z,5.63
2023-04-08T00:21:13.576Z,5.47
2023-04-08T00:31:16.405Z,4.90
2023-04-08T00:41:20.485Z,5.15
2023-04-08T00:51:23.221Z,5.97
2023-04-08T01:01:35.316Z,6.05
2023-04-08T01:11:41.744Z,6.72
2023-04-08T01:21:46.392Z,6.72
2023-04-08T01:31:51.135Z,6.05
2023-04-08T01:41:55.926Z,7.05
2023-04-08T01:52:01.566Z,6.70
2023-04-08T02:02:07.972Z,8.00
2023-04-08T02:12:12.753Z,6.72
2023-04-08T02:22:20.617Z,7.50
2023-04-08T02:32:26.444Z,7.63
2023-04-08T02:42:29.137Z,7.10
2023-04-08T02:52:33.205Z,8.02
2023-04-08T03:02:36.232Z,8.00
2023-04-08T03:12:40.543Z,8.23
2023-04-08T03:22:43.256Z,7.72
2023-04-08T03:32:47.551Z,8.25
2023-04-08T03:42:50.275Z,7.78
2023-04-08T03:52:54.323Z,8.18
2023-04-08T04:02:57.089Z,7.05
2023-04-08T04:13:01.198Z,8.27
2023-04-08T04:23:03.846Z,7.53
2023-04-08T04:33:08.152Z,8.02
2023-04-08T04:43:11.250Z,6.63
2023-04-08T04:53:15.396Z,7.07
2023-04-08T05:03:18.099Z,7.47
2023-04-08T05:13:28.844Z,6.68
2023-04-08T05:23:31.589Z,8.10
2023-04-08T05:33:35.582Z,8.35
2023-04-08T05:43:38.251Z,7.78
2023-04-08T05:53:42.416Z,8.02
2023-04-08T06:03:45.156Z,9.13
2023-04-08T06:13:49.278Z,8.43
2023-04-08T06:23:51.942Z,8.90
2023-04-08T06:33:55.948Z,8.07
2023-04-08T06:43:58.587Z,8.00
2023-04-08T06:54:02.668Z,8.73
2023-04-08T07:04:05.473Z,9.30
2023-04-08T07:14:09.514Z,9.13
2023-04-08T07:24:12.210Z,9.10
2023-04-08T07:34:16.586Z,9.30
2023-04-08T07:44:19.993Z,8.68
2023-04-08T07:54:24.108Z,10.10
2023-04-08T08:04:26.997Z,10.10
2023-04-08T08:14:31.169Z,11.80
2023-04-08T08:24:33.894Z,12.57
2023-04-08T08:34:38.176Z,10.52
2023-04-08T08:44:41.378Z,11.05
2023-04-08T08:54:46.362Z,12.02
2023-04-08T09:04:58.123Z,10.15
2023-04-08T09:15:10.265Z,12.32
2023-04-08T09:25:24.434Z,13.55
2023-04-08T09:35:28.474Z,21.38
2023-04-08T09:45:33.537Z,12.00
2023-04-08T09:55:38.878Z,12.75
2023-04-08T10:05:42.935Z,12.52
2023-04-08T10:15:47.749Z,12.93
2023-04-08T10:25:50.855Z,14.35
2023-04-08T10:36:09.605Z,17.80
2023-04-08T10:46:12.653Z,13.77
2023-04-08T10:56:17.718Z,17.33
2023-04-08T11:06:20.458Z,18.45
2023-04-08T11:16:25.905Z,20.98
2023-04-08T11:26:28.917Z,19.05
2023-04-08T11:36:35.199Z,17.25
2023-04-08T11:46:38.078Z,16.45
2023-04-08T11:56:48.018Z,16.25
2023-04-08T12:06:50.768Z,16.33
2023-04-08T12:16:54.766Z,15.45
2023-04-08T12:26:57.677Z,14.82
2023-04-08T12:37:02.406Z,16.45
2023-04-08T12:47:05.127Z,14.07
2023-04-08T12:57:09.189Z,13.48
2023-04-08T13:07:11.864Z,14.25
2023-04-08T13:17:15.869Z,14.80
2023-04-08T13:27:18.571Z,15.60
2023-04-08T13:37:22.590Z,13.98
2023-04-08T13:47:25.331Z,15.63
2023-04-08T13:57:29.552Z,17.30
2023-04-08T14:07:32.244Z,18.27
2023-04-08T14:17:37.084Z,18.75
2023-04-08T14:27:50.975Z,19.75
2023-04-08T14:38:01.750Z,21.45
2023-04-08T14:48:04.586Z,26.50
2023-04-08T14:58:08.659Z,19.88
2023-04-08T15:08:11.561Z,25.80
2023-04-08T15:18:15.655Z,25.67
2023-04-08T15:28:18.365Z,35.38
2023-04-08T15:38:22.431Z,17.77
2023-04-08T15:48:25.172Z,14.75
2023-04-08T15:58:29.142Z,16.63
2023-04-08T16:08:33.316Z,18.70
2023-04-08T16:18:37.844Z,15.68
2023-04-08T16:28:40.905Z,20.85
2023-04-08T16:38:44.896Z,27.65
2023-04-08T16:48:47.564Z,18.30
2023-04-08T16:58:52.486Z,75.68
2023-04-08T17:08:55.220Z,27.60
2023-04-08T17:18:59.422Z,35.83
2023-04-08T17:29:02.187Z,38.00
2023-04-08T17:39:06.257Z,40.22
2023-04-08T17:49:11.077Z,28.38
2023-04-08T17:59:15.344Z,22.45
2023-04-08T18:09:18.166Z,28.00
2023-04-08T18:19:22.576Z,43.95
2023-04-08T18:29:25.347Z,33.65
2023-04-08T18:39:29.324Z,41.08
2023-04-08T18:49:33.903Z,35.88
2023-04-08T18:59:38.391Z,36.00
2023-04-08T19:09:41.034Z,31.40
2023-04-08T19:19:45.162Z,37.13
2023-04-08T19:29:47.842Z,36.38
2023-04-08T19:39:51.841Z,42.50
2023-04-08T19:49:54.472Z,39.30
2023-04-08T19:59:58.455Z,55.08
2023-04-08T20:10:01.172Z,44.55
2023-04-08T20:20:06.537Z,39.15
2023-04-08T20:30:10.440Z,44.03
2023-04-08T20:40:16.391Z,45.17
2023-04-08T20:50:20.592Z,39.00
2023-04-08T21:00:24.606Z,40.33
2023-04-08T21:10:27.342Z,40.42
2023-04-08T21:20:32.288Z,41.13
2023-04-08T21:30:34.972Z,32.47
2023-04-08T21:40:39.014Z,27.08
2023-04-08T21:50:41.748Z,25.20
2023-04-08T22:00:46.294Z,25.63
2023-04-08T22:10:48.984Z,25.00
2023-04-08T22:20:53.017Z,25.50
2023-04-08T22:30:55.813Z,25.02
2023-04-08T22:40:59.863Z,21.88
2023-04-08T22:51:02.644Z,25.52
2023-04-08T23:01:16.942Z,25.30
2023-04-08T23:11:19.725Z,25.02
2023-04-08T23:21:23.758Z,27.70
2023-04-08T23:31:26.479Z,28.10
2023-04-08T23:41:30.583Z,29.10
2023-04-08T23:51:33.242Z,27.98
